Time;durP1;ratioP1;P1;durP2;ratioP2;P2;SDS_P1;SDS_P2;PMS_P1;PMS_P2;Temp;Humidity;BMP_temperature;BMP_pressure;BME280_temperature;BME280_humidity;BME280_pressure;Samples;Min_cycle;Max_cycle;Signal;HPM_P1;HPM_P2
2023/08/21 02:01:21;;;;;;;8.40;7.22;;;;;;;;;;4630543;28;20103;-81
2023/08/21 02:03:49;;;;;;;16.00;8.93;;;;;;;;;;4242539;33;20088;-81
2023/08/21 02:06:15;;;;;;;9.73;6.25;;;;;;;;;;4242323;33;20060;-82
2023/08/21 02:08:41;;;;;;;11.05;7.97;;;;;;;;;;4241442;33;20531;-81
2023/08/21 02:11:07;;;;;;;9.88;6.90;;;;;;;;;;4224856;34;20050;-81
2023/08/21 02:13:35;;;;;;;11.35;7.15;;;;;;;;;;4210954;34;20055;-80
2023/08/21 02:16:01;;;;;;;9.88;6.70;;;;;;;;;;4211828;34;20914;-80
2023/08/21 02:18:27;;;;;;;10.18;7.03;;;;;;;;;;4210396;34;20043;-81
2023/08/21 02:20:53;;;;;;;11.00;6.70;;;;;;;;;;4210043;34;20043;-80
2023/08/21 02:23:19;;;;;;;9.52;7.32;;;;;;;;;;4200285;34;20814;-81
2023/08/21 02:25:46;;;;;;;12.80;7.65;;;;;;;;;;4196834;34;20036;-80
2023/08/21 02:28:12;;;;;;;9.32;7.40;;;;;;;;;;4200411;34;20409;-80
2023/08/21 02:30:41;;;;;;;9.02;6.90;;;;;;;;;;4197764;34;20040;-81
2023/08/21 02:33:08;;;;;;;9.85;7.35;;;;;;;;;;4196309;34;20052;-80
2023/08/21 02:35:34;;;;;;;12.98;7.60;;;;;;;;;;4197836;34;20402;-81
2023/08/21 02:38:00;;;;;;;8.73;7.15;;;;;;;;;;4196724;34;20044;-80
2023/08/21 02:40:26;;;;;;;11.25;7.25;;;;;;;;;;4182358;34;20386;-81
2023/08/21 02:42:52;;;;;;;9.82;7.30;;;;;;;;;;4178643;34;20047;-82
2023/08/21 02:45:19;;;;;;;9.93;7.18;;;;;;;;;;4184340;34;20112;-80
2023/08/21 02:47:45;;;;;;;10.45;7.22;;;;;;;;;;4182845;34;20074;-80
2023/08/21 02:50:11;;;;;;;8.63;7.37;;;;;;;;;;4183233;34;20601;-81
2023/08/21 02:52:38;;;;;;;10.55;8.02;;;;;;;;;;4194032;34;20051;-80
2023/08/21 02:55:04;;;;;;;8.52;7.65;;;;;;;;;;4194648;34;20043;-79
2023/08/21 02:57:31;;;;;;;16.48;8.98;;;;;;;;;;4192312;34;20049;-79
2023/08/21 02:59:57;;;;;;;9.27;7.35;;;;;;;;;;4168034;34;20549;-82
2023/08/21 03:02:23;;;;;;;8.18;7.43;;;;;;;;;;4179411;34;20069;-80
2023/08/21 03:04:49;;;;;;;8.75;7.93;;;;;;;;;;4183628;34;20032;-80
2023/08/21 03:07:15;;;;;;;10.63;7.40;;;;;;;;;;4183234;34;20052;-81
2023/08/21 03:09:44;;;;;;;10.00;8.27;;;;;;;;;;4180742;34;20035;-80
2023/08/21 03:12:11;;;;;;;9.52;8.20;;;;;;;;;;4182760;34;20144;-80
2023/08/21 03:14:37;;;;;;;16.55;8.30;;;;;;;;;;4183442;34;20417;-80
2023/08/21 03:17:03;;;;;;;10.30;9.20;;;;;;;;;;4186550;34;20064;-80
2023/08/21 03:19:29;;;;;;;12.95;8.38;;;;;;;;;;4210732;34;20200;-80
2023/08/21 03:21:55;;;;;;;10.98;9.35;;;;;;;;;;4218221;34;20055;-79
2023/08/21 03:24:22;;;;;;;15.40;10.02;;;;;;;;;;4211920;34;20098;-80
2023/08/21 03:26:48;;;;;;;20.95;10.10;;;;;;;;;;4211192;34;20052;-80
2023/08/21 03:29:14;;;;;;;12.37;10.80;;;;;;;;;;4220244;34;20043;-80
2023/08/21 03:31:41;;;;;;;19.67;11.20;;;;;;;;;;4236011;33;20089;-80
2023/08/21 03:34:08;;;;;;;10.65;9.25;;;;;;;;;;4237632;33;20038;-79
2023/08/21 03:36:37;;;;;;;14.68;8.65;;;;;;;;;;4230327;33;20206;-80
2023/08/21 03:39:06;;;;;;;12.20;8.27;;;;;;;;;;4238548;33;20882;-81
2023/08/21 03:41:33;;;;;;;15.35;11.35;;;;;;;;;;4236935;33;20046;-79
2023/08/21 03:43:59;;;;;;;13.02;9.88;;;;;;;;;;4234185;33;20421;-79
2023/08/21 03:46:26;;;;;;;12.63;10.88;;;;;;;;;;4224665;34;20066;-80
2023/08/21 03:48:54;;;;;;;12.57;10.60;;;;;;;;;;4223152;34;20031;-79
2023/08/21 03:51:20;;;;;;;12.25;9.60;;;;;;;;;;4197592;34;20051;-79
2023/08/21 03:53:46;;;;;;;20.77;10.73;;;;;;;;;;4181269;34;20044;-80
2023/08/21 03:56:12;;;;;;;13.50;9.50;;;;;;;;;;4181156;34;20073;-79
2023/08/21 03:58:38;;;;;;;11.68;9.73;;;;;;;;;;4183126;34;20047;-80
2023/08/21 04:01:06;;;;;;;13.40;8.25;;;;;;;;;;4181458;34;20056;-79
2023/08/21 04:03:33;;;;;;;12.57;9.48;;;;;;;;;;4182840;34;20231;-79
2023/08/21 04:06:01;;;;;;;12.37;9.90;;;;;;;;;;4184015;34;20406;-79
2023/08/21 04:08:27;;;;;;;14.20;10.18;;;;;;;;;;4175581;34;20182;-79
2023/08/21 04:10:53;;;;;;;19.62;11.25;;;;;;;;;;4183869;34;20055;-79
2023/08/21 04:13:22;;;;;;;22.30;13.18;;;;;;;;;;4181880;34;20097;-79
2023/08/21 04:15:49;;;;;;;17.05;11.82;;;;;;;;;;4190623;34;20421;-80
2023/08/21 04:18:15;;;;;;;17.48;11.55;;;;;;;;;;4193761;34;20035;-79
2023/08/21 04:20:41;;;;;;;14.85;11.20;;;;;;;;;;4170387;34;20087;-79
2023/08/21 04:23:07;;;;;;;23.75;11.27;;;;;;;;;;4172213;34;20439;-80
2023/08/21 04:25:34;;;;;;;23.80;10.60;;;;;;;;;;4168396;34;20055;-80
2023/08/21 04:27:59;;;;;;;22.33;11.68;;;;;;;;;;4167739;34;20052;-79
2023/08/21 04:30:26;;;;;;;18.75;11.63;;;;;;;;;;4167297;34;20073;-80
2023/08/21 04:32:53;;;;;;;19.98;12.07;;;;;;;;;;4183036;34;20051;-80
2023/08/21 04:35:19;;;;;;;19.23;12.10;;;;;;;;;;4190270;34;20061;-79
2023/08/21 04:37:46;;;;;;;22.52;13.40;;;;;;;;;;4182600;34;20047;-79
2023/08/21 04:40:13;;;;;;;15.55;11.52;;;;;;;;;;4183019;34;20055;-80
2023/08/21 04:42:39;;;;;;;17.23;13.30;;;;;;;;;;4201729;34;20090;-81
2023/08/21 04:45:07;;;;;;;19.30;12.82;;;;;;;;;;4184880;34;20077;-81
2023/08/21 04:47:34;;;;;;;19.62;12.30;;;;;;;;;;4181765;34;20058;-79
2023/08/21 04:50:00;;;;;;;16.77;12.05;;;;;;;;;;4153574;34;20058;-79
2023/08/21 04:52:33;;;;;;;17.73;13.00;;;;;;;;;;4138380;34;20034;-80
2023/08/21 04:54:59;;;;;;;19.92;13.23;;;;;;;;;;4140389;34;20075;-82
2023/08/21 04:57:26;;;;;;;16.70;14.38;;;;;;;;;;4140455;34;20044;-79
2023/08/21 04:59:52;;;;;;;28.83;14.45;;;;;;;;;;4140048;34;20086;-81
2023/08/21 05:02:19;;;;;;;20.83;16.25;;;;;;;;;;4148442;34;20074;-76
2023/08/21 05:04:45;;;;;;;22.42;15.48;;;;;;;;;;4153076;34;20078;-78
2023/08/21 05:07:11;;;;;;;22.77;14.52;;;;;;;;;;4154934;34;20091;-82
2023/08/21 05:09:37;;;;;;;25.92;17.37;;;;;;;;;;4153957;34;20064;-81
2023/08/21 05:12:05;;;;;;;22.20;15.77;;;;;;;;;;4160017;34;20036;-81
2023/08/21 05:14:31;;;;;;;29.95;18.20;;;;;;;;;;4168240;34;20099;-79
2023/08/21 05:16:57;;;;;;;27.13;17.30;;;;;;;;;;4189157;34;20061;-78
2023/08/21 05:19:23;;;;;;;21.85;14.38;;;;;;;;;;4185057;34;20177;-77
2023/08/21 05:21:50;;;;;;;39.67;14.98;;;;;;;;;;4167884;34;20070;-79
2023/08/21 05:24:17;;;;;;;19.10;13.00;;;;;;;;;;4181106;34;20086;-79
2023/08/21 05:26:43;;;;;;;16.45;13.15;;;;;;;;;;4180521;34;20394;-79
2023/08/21 05:29:09;;;;;;;20.98;13.73;;;;;;;;;;4170227;34;20073;-77
2023/08/21 05:31:36;;;;;;;22.98;14.05;;;;;;;;;;4194112;34;20762;-77
2023/08/21 05:34:03;;;;;;;17.02;13.90;;;;;;;;;;4198384;34;20085;-79
2023/08/21 05:36:29;;;;;;;18.75;14.32;;;;;;;;;;4197353;34;20076;-79
2023/08/21 05:38:57;;;;;;;26.60;12.00;;;;;;;;;;4195002;34;20055;-79
2023/08/21 05:41:24;;;;;;;15.85;9.88;;;;;;;;;;4197005;34;20040;-77
2023/08/21 05:43:59;;;;;;;10.50;9.40;;;;;;;;;;4197434;34;20385;-76
2023/08/21 05:46:26;;;;;;;19.55;10.57;;;;;;;;;;4196548;34;20043;-77
2023/08/21 05:48:52;;;;;;;27.73;9.93;;;;;;;;;;4197466;34;20051;-76
2023/08/21 05:51:18;;;;;;;21.25;10.95;;;;;;;;;;4185387;34;20047;-77
2023/08/21 05:53:45;;;;;;;20.73;10.38;;;;;;;;;;4226046;33;20144;-78
2023/08/21 05:56:12;;;;;;;16.35;11.23;;;;;;;;;;4228548;33;20047;-79
2023/08/21 05:58:38;;;;;;;15.00;10.25;;;;;;;;;;4221020;33;20072;-82
2023/08/21 06:01:04;;;;;;;13.45;10.48;;;;;;;;;;4211039;34;20039;-79
2023/08/21 06:03:32;;;;;;;14.38;12.10;;;;;;;;;;4214979;34;20047;-78
2023/08/21 06:05:59;;;;;;;20.90;11.25;;;;;;;;;;4210916;34;20081;-79
2023/08/21 06:08:26;;;;;;;15.48;11.55;;;;;;;;;;4210719;34;20503;-78
2023/08/21 06:10:54;;;;;;;16.33;12.70;;;;;;;;;;4210153;34;20039;-79
2023/08/21 06:13:21;;;;;;;16.17;12.23;;;;;;;;;;4208475;34;20141;-79
2023/08/21 06:15:48;;;;;;;14.98;11.57;;;;;;;;;;4211396;34;20584;-80
2023/08/21 06:18:15;;;;;;;17.83;12.63;;;;;;;;;;4211186;34;20073;-79
2023/08/21 06:20:44;;;;;;;26.80;12.13;;;;;;;;;;4209815;34;20587;-78
2023/08/21 06:23:11;;;;;;;17.30;11.85;;;;;;;;;;4209269;34;20091;-79
2023/08/21 06:25:38;;;;;;;17.58;12.02;;;;;;;;;;4197533;34;20051;-79
2023/08/21 06:28:05;;;;;;;18.05;11.80;;;;;;;;;;4174720;34;20645;-77
2023/08/21 06:30:32;;;;;;;15.80;10.75;;;;;;;;;;4170659;34;20072;-77
2023/08/21 06:32:58;;;;;;;17.83;11.15;;;;;;;;;;4164685;34;20048;-78
2023/08/21 06:35:24;;;;;;;13.45;11.05;;;;;;;;;;4163571;34;20465;-79
2023/08/21 06:37:51;;;;;;;16.70;11.80;;;;;;;;;;4164685;34;20081;-79
2023/08/21 06:40:17;;;;;;;14.00;11.20;;;;;;;;;;4160934;34;20054;-79
2023/08/21 06:42:43;;;;;;;21.62;16.27;;;;;;;;;;4168039;34;20187;-78
2023/08/21 06:45:09;;;;;;;19.73;14.05;;;;;;;;;;4164364;34;20036;-78
2023/08/21 06:47:36;;;;;;;17.40;12.00;;;;;;;;;;4154759;34;20090;-78
2023/08/21 06:50:02;;;;;;;15.45;13.15;;;;;;;;;;4155572;34;20088;-79
2023/08/21 06:52:28;;;;;;;13.35;10.43;;;;;;;;;;4157040;34;20053;-79
2023/08/21 06:54:54;;;;;;;14.43;10.57;;;;;;;;;;4166317;34;20076;-78
2023/08/21 06:57:21;;;;;;;12.90;9.93;;;;;;;;;;4158718;34;20173;-83
2023/08/21 06:59:46;;;;;;;14.10;11.30;;;;;;;;;;4169666;34;20067;-79
2023/08/21 07:02:13;;;;;;;12.93;9.55;;;;;;;;;;4158501;34;20057;-79
2023/08/21 07:04:39;;;;;;;15.18;9.70;;;;;;;;;;4167695;34;20047;-79
2023/08/21 07:07:05;;;;;;;9.70;8.68;;;;;;;;;;4175460;34;20047;-78
2023/08/21 07:09:31;;;;;;;14.90;9.63;;;;;;;;;;4168550;34;20080;-79
2023/08/21 07:11:57;;;;;;;12.00;9.23;;;;;;;;;;4174790;34;20078;-77
2023/08/21 07:14:24;;;;;;;8.27;6.85;;;;;;;;;;4180264;34;20784;-76
2023/08/21 07:16:50;;;;;;;10.68;7.15;;;;;;;;;;4177986;34;20040;-79
2023/08/21 07:19:17;;;;;;;7.93;7.22;;;;;;;;;;4200030;34;20035;-79
2023/08/21 07:21:43;;;;;;;6.18;5.65;;;;;;;;;;4159337;34;20170;-81
2023/08/21 07:24:09;;;;;;;5.53;5.03;;;;;;;;;;4158488;34;20064;-78
2023/08/21 07:26:38;;;;;;;4.80;4.40;;;;;;;;;;4164765;34;20136;-78
2023/08/21 07:29:04;;;;;;;4.95;4.37;;;;;;;;;;4161332;34;20041;-78
2023/08/21 07:31:31;;;;;;;3.67;3.37;;;;;;;;;;4158890;34;20113;-79
2023/08/21 07:33:57;;;;;;;9.27;4.80;;;;;;;;;;4184935;34;20449;-79
2023/08/21 07:36:23;;;;;;;7.72;3.97;;;;;;;;;;4194053;34;20063;-80
2023/08/21 07:38:50;;;;;;;3.75;3.45;;;;;;;;;;4194917;34;20077;-79
2023/08/21 07:41:16;;;;;;;2.75;2.65;;;;;;;;;;4193878;34;20066;-79
2023/08/21 07:43:43;;;;;;;5.28;4.12;;;;;;;;;;4165673;34;20044;-80
2023/08/21 07:46:13;;;;;;;6.28;3.45;;;;;;;;;;4168372;34;20048;-79
2023/08/21 07:48:39;;;;;;;3.70;3.40;;;;;;;;;;4168554;34;20044;-79
2023/08/21 07:51:14;;;;;;;7.05;4.18;;;;;;;;;;4167869;34;20048;-79
2023/08/21 07:53:40;;;;;;;6.62;2.45;;;;;;;;;;4166288;34;20468;-79
2023/08/21 07:56:06;;;;;;;6.82;3.10;;;;;;;;;;4166178;34;20107;-79
2023/08/21 07:58:32;;;;;;;2.40;2.10;;;;;;;;;;4170787;34;20074;-79
2023/08/21 08:01:01;;;;;;;3.92;3.12;;;;;;;;;;4196557;34;20047;-78
2023/08/21 08:03:27;;;;;;;2.92;2.72;;;;;;;;;;4195853;34;20043;-80
2023/08/21 08:05:53;;;;;;;6.53;3.17;;;;;;;;;;4198562;34;20059;-82
2023/08/21 08:08:20;;;;;;;4.75;3.00;;;;;;;;;;4204126;34;20044;-80
2023/08/21 08:10:46;;;;;;;2.75;2.45;;;;;;;;;;4208917;34;20047;-79
2023/08/21 08:13:12;;;;;;;2.80;2.60;;;;;;;;;;4210564;34;20030;-80
2023/08/21 08:15:38;;;;;;;2.95;2.70;;;;;;;;;;4202686;34;20055;-82
2023/08/21 08:18:07;;;;;;;3.67;3.05;;;;;;;;;;4207268;34;20043;-80
2023/08/21 08:20:33;;;;;;;4.70;2.90;;;;;;;;;;4187604;34;20449;-80
2023/08/21 08:22:59;;;;;;;3.83;2.83;;;;;;;;;;4209894;34;20039;-81
2023/08/21 08:25:25;;;;;;;3.00;2.35;;;;;;;;;;4194907;34;20122;-80
2023/08/21 08:27:51;;;;;;;2.47;2.28;;;;;;;;;;4195297;34;20044;-81
2023/08/21 08:30:17;;;;;;;4.43;2.12;;;;;;;;;;4193699;34;20044;-81
2023/08/21 08:32:44;;;;;;;2.15;1.95;;;;;;;;;;4195635;34;20081;-77
2023/08/21 08:35:18;;;;;;;3.42;2.60;;;;;;;;;;4194599;34;20051;-78
2023/08/21 08:37:44;;;;;;;7.20;3.58;;;;;;;;;;4197905;34;20035;-79
2023/08/21 08:40:11;;;;;;;7.15;2.37;;;;;;;;;;4195217;34;20400;-82
2023/08/21 08:42:38;;;;;;;3.42;2.60;;;;;;;;;;4194448;34;20104;-81
2023/08/21 08:45:05;;;;;;;2.58;2.37;;;;;;;;;;4199763;34;20097;-79
2023/08/21 08:47:31;;;;;;;4.25;3.05;;;;;;;;;;4194804;34;20096;-82
2023/08/21 08:49:58;;;;;;;6.75;2.53;;;;;;;;;;4183480;34;20463;-79
2023/08/21 08:52:26;;;;;;;3.05;2.85;;;;;;;;;;4200847;34;20069;-80
2023/08/21 08:54:54;;;;;;;5.07;2.85;;;;;;;;;;4207710;34;20058;-80
2023/08/21 08:57:26;;;;;;;2.55;2.35;;;;;;;;;;4220228;34;20031;-79
2023/08/21 08:59:53;;;;;;;4.87;2.87;;;;;;;;;;4223249;34;20073;-78
2023/08/21 09:02:19;;;;;;;3.25;2.50;;;;;;;;;;4220835;33;20085;-80
2023/08/21 09:04:45;;;;;;;3.60;2.53;;;;;;;;;;4220211;34;20080;-89
2023/08/21 09:07:12;;;;;;;3.70;2.55;;;;;;;;;;4224094;34;20055;-80
2023/08/21 09:09:45;;;;;;;3.35;2.12;;;;;;;;;;4221000;33;20068;-80
2023/08/21 09:12:12;;;;;;;3.20;2.25;;;;;;;;;;4223310;34;20090;-81
2023/08/21 09:14:42;;;;;;;3.97;2.42;;;;;;;;;;4222080;34;20046;-83
2023/08/21 09:17:08;;;;;;;2.47;2.28;;;;;;;;;;4226705;34;20043;-82
2023/08/21 09:19:35;;;;;;;8.70;2.50;;;;;;;;;;4226273;34;20068;-81
2023/08/21 09:22:11;;;;;;;2.75;2.40;;;;;;;;;;4220081;34;20090;-82
2023/08/21 09:24:39;;;;;;;2.42;2.10;;;;;;;;;;4240931;33;20085;-85
2023/08/21 09:27:12;;;;;;;6.93;2.50;;;;;;;;;;4240086;33;20470;-81
2023/08/21 09:29:40;;;;;;;6.12;2.03;;;;;;;;;;4245359;33;20080;-83
2023/08/21 09:32:12;;;;;;;2.28;2.10;;;;;;;;;;4240987;33;20090;-81
2023/08/21 09:34:39;;;;;;;3.78;2.33;;;;;;;;;;4240805;33;20068;-83
2023/08/21 09:37:07;;;;;;;2.80;2.60;;;;;;;;;;4241209;33;20478;-83
2023/08/21 09:39:37;;;;;;;8.18;2.25;;;;;;;;;;4238096;33;20047;-81
2023/08/21 09:42:07;;;;;;;4.05;3.75;;;;;;;;;;4237164;33;20034;-82
2023/08/21 09:44:41;;;;;;;3.80;2.60;;;;;;;;;;4238303;33;20558;-82
2023/08/21 09:47:08;;;;;;;3.47;2.50;;;;;;;;;;4240048;33;20350;-82
2023/08/21 09:49:36;;;;;;;5.35;2.90;;;;;;;;;;4240189;33;20072;-83
2023/08/21 09:52:03;;;;;;;3.80;2.10;;;;;;;;;;4223970;34;20042;-85
2023/08/21 09:54:31;;;;;;;2.50;2.30;;;;;;;;;;4223807;34;20039;-83
2023/08/21 09:57:00;;;;;;;2.28;1.90;;;;;;;;;;4221518;34;20034;-81
2023/08/21 09:59:27;;;;;;;1.98;1.87;;;;;;;;;;4225476;33;20481;-83
2023/08/21 10:01:53;;;;;;;4.37;2.12;;;;;;;;;;4229593;33;20586;-84
2023/08/21 10:04:22;;;;;;;2.72;1.98;;;;;;;;;;4226348;33;20538;-81
2023/08/21 10:06:48;;;;;;;3.62;2.30;;;;;;;;;;4224941;34;20409;-83
2023/08/21 10:09:15;;;;;;;2.92;2.17;;;;;;;;;;4224439;34;20457;-82
2023/08/21 10:11:42;;;;;;;2.45;2.20;;;;;;;;;;4227270;33;20211;-79
2023/08/21 10:14:10;;;;;;;2.90;2.37;;;;;;;;;;4210283;34;20055;-82
2023/08/21 10:16:36;;;;;;;2.17;2.03;;;;;;;;;;4196054;34;20053;-83
2023/08/21 10:19:05;;;;;;;2.00;1.90;;;;;;;;;;4194014;34;20404;-84
2023/08/21 10:21:34;;;;;;;2.58;1.83;;;;;;;;;;4197439;34;20533;-83
2023/08/21 10:24:01;;;;;;;3.95;1.77;;;;;;;;;;4220751;33;21658;-86
2023/08/21 10:26:27;;;;;;;1.83;1.73;;;;;;;;;;4222710;34;20061;-82
2023/08/21 10:28:54;;;;;;;1.67;1.58;;;;;;;;;;4221948;34;20113;-84
2023/08/21 10:31:27;;;;;;;2.30;2.08;;;;;;;;;;4223214;33;20595;-85
2023/08/21 10:34:07;;;;;;;3.00;1.80;;;;;;;;;;4223045;34;20050;-79
2023/08/21 10:36:40;;;;;;;3.08;2.30;;;;;;;;;;4207999;34;20094;-81
2023/08/21 10:39:14;;;;;;;3.62;2.35;;;;;;;;;;4207946;34;21035;-82
2023/08/21 10:41:52;;;;;;;1.75;1.65;;;;;;;;;;4207710;34;20035;-82
2023/08/21 10:44:33;;;;;;;2.28;2.00;;;;;;;;;;4208986;34;21314;-79
2023/08/21 10:47:22;;;;;;;3.05;1.87;;;;;;;;;;4215490;33;20061;-78
2023/08/21 10:49:56;;;;;;;1.42;1.40;;;;;;;;;;4216088;34;20080;-87
2023/08/21 10:52:29;;;;;;;4.72;2.00;;;;;;;;;;4229303;33;20512;-83
2023/08/21 10:54:56;;;;;;;2.85;2.60;;;;;;;;;;4237144;33;20083;-82
2023/08/21 10:57:23;;;;;;;1.87;1.80;;;;;;;;;;4227278;33;20170;-88
2023/08/21 10:59:53;;;;;;;3.40;2.33;;;;;;;;;;4220242;33;20055;-84
2023/08/21 11:02:19;;;;;;;2.10;2.00;;;;;;;;;;4344806;28;20073;-81
2023/08/21 11:04:45;;;;;;;3.92;1.87;;;;;;;;;;4203298;34;20092;-82
2023/08/21 11:07:12;;;;;;;3.28;2.22;;;;;;;;;;4212785;34;20051;-83
2023/08/21 11:09:39;;;;;;;2.28;1.70;;;;;;;;;;4220725;34;20880;-82
2023/08/21 11:12:08;;;;;;;6.93;2.00;;;;;;;;;;4212201;34;20051;-82
2023/08/21 11:14:35;;;;;;;8.73;1.87;;;;;;;;;;4189008;34;20323;-81
2023/08/21 11:17:01;;;;;;;1.75;1.73;;;;;;;;;;4190881;34;20063;-84
2023/08/21 11:19:29;;;;;;;2.55;2.10;;;;;;;;;;4190578;34;20108;-81
2023/08/21 11:21:55;;;;;;;2.58;1.85;;;;;;;;;;4191054;34;20036;-83
2023/08/21 11:24:22;;;;;;;8.40;2.55;;;;;;;;;;4195501;34;20426;-86
2023/08/21 11:26:48;;;;;;;5.07;4.57;;;;;;;;;;4194344;34;20359;-78
2023/08/21 11:29:14;;;;;;;5.25;3.40;;;;;;;;;;4177334;34;20060;-80
2023/08/21 11:31:41;;;;;;;1.60;1.60;;;;;;;;;;4180838;34;20035;-82
2023/08/21 11:34:08;;;;;;;2.50;1.62;;;;;;;;;;4182990;34;20031;-84
2023/08/21 11:36:33;;;;;;;3.65;1.85;;;;;;;;;;4182888;34;20092;-89
2023/08/21 11:39:01;;;;;;;1.40;1.30;;;;;;;;;;4189098;34;20056;-80
2023/08/21 11:41:27;;;;;;;2.00;1.90;;;;;;;;;;4186483;34;20052;-80
2023/08/21 11:43:57;;;;;;;1.67;1.52;;;;;;;;;;4193913;34;20073;-79
2023/08/21 11:46:23;;;;;;;2.15;1.73;;;;;;;;;;4212819;34;20129;-89
2023/08/21 11:48:52;;;;;;;1.80;1.70;;;;;;;;;;4220328;34;20063;-79
2023/08/21 11:51:18;;;;;;;2.70;1.70;;;;;;;;;;4215037;34;20043;-82
2023/08/21 11:53:47;;;;;;;4.50;2.12;;;;;;;;;;4216594;34;20112;-79
2023/08/21 11:56:16;;;;;;;4.25;1.60;;;;;;;;;;4211882;34;20039;-79
2023/08/21 11:58:45;;;;;;;2.85;1.80;;;;;;;;;;4206083;34;20043;-79
2023/08/21 12:01:16;;;;;;;3.50;1.70;;;;;;;;;;4209053;34;20461;-79
2023/08/21 12:03:43;;;;;;;1.87;1.62;;;;;;;;;;4204992;34;20052;-80
2023/08/21 12:06:10;;;;;;;3.62;1.65;;;;;;;;;;4174945;34;20087;-81
2023/08/21 12:08:37;;;;;;;2.80;1.87;;;;;;;;;;4172159;34;20056;-83
2023/08/21 12:11:03;;;;;;;33.00;28.60;;;;;;;;;;4172880;34;20117;-82
2023/08/21 12:13:30;;;;;;;2.65;2.42;;;;;;;;;;4163071;34;20388;-80
2023/08/21 12:15:55;;;;;;;2.47;2.28;;;;;;;;;;4162361;34;20041;-81
2023/08/21 12:18:22;;;;;;;7.07;1.90;;;;;;;;;;4157840;34;20036;-81
2023/08/21 12:20:49;;;;;;;4.55;2.20;;;;;;;;;;4161950;34;20048;-82
2023/08/21 12:23:15;;;;;;;3.20;2.00;;;;;;;;;;4162494;34;20106;-81
2023/08/21 12:25:41;;;;;;;2.42;1.65;;;;;;;;;;4163269;34;20045;-81
2023/08/21 12:28:08;;;;;;;3.78;1.75;;;;;;;;;;4168253;34;20117;-81
2023/08/21 12:30:34;;;;;;;1.92;1.83;;;;;;;;;;4168509;34;20516;-81
2023/08/21 12:33:01;;;;;;;1.90;1.70;;;;;;;;;;4165623;34;20121;-87
2023/08/21 12:35:27;;;;;;;1.70;1.60;;;;;;;;;;4166453;34;20052;-80
2023/08/21 12:37:56;;;;;;;3.42;1.90;;;;;;;;;;4186237;34;20059;-78
2023/08/21 12:40:22;;;;;;;2.33;2.22;;;;;;;;;;4188694;34;20168;-79
2023/08/21 12:42:50;;;;;;;3.95;1.83;;;;;;;;;;4186050;34;20069;-82
2023/08/21 12:45:16;;;;;;;1.75;1.52;;;;;;;;;;4205331;34;20040;-83
2023/08/21 12:47:42;;;;;;;3.75;2.30;;;;;;;;;;4227913;33;20479;-79
2023/08/21 12:50:09;;;;;;;2.50;1.73;;;;;;;;;;4230289;33;20162;-79
2023/08/21 12:52:35;;;;;;;1.90;1.80;;;;;;;;;;4226614;33;20051;-80
2023/08/21 12:55:05;;;;;;;2.47;1.52;;;;;;;;;;4227473;33;20035;-81
2023/08/21 12:57:38;;;;;;;2.30;2.12;;;;;;;;;;4229890;33;20351;-80
2023/08/21 13:00:05;;;;;;;4.15;1.83;;;;;;;;;;4228670;33;20043;-81
2023/08/21 13:02:31;;;;;;;1.67;1.67;;;;;;;;;;4224598;33;20071;-79
2023/08/21 13:04:57;;;;;;;1.50;1.40;;;;;;;;;;4223719;34;20047;-80
2023/08/21 13:07:23;;;;;;;2.78;1.73;;;;;;;;;;4194623;34;20106;-78
2023/08/21 13:09:49;;;;;;;1.40;1.30;;;;;;;;;;4195904;34;20044;-80
2023/08/21 13:12:16;;;;;;;6.18;1.50;;;;;;;;;;4196656;34;20048;-81
2023/08/21 13:14:42;;;;;;;2.60;1.83;;;;;;;;;;4197149;34;20027;-82
2023/08/21 13:17:09;;;;;;;4.30;1.42;;;;;;;;;;4195045;34;20067;-83
2023/08/21 13:19:35;;;;;;;5.05;2.03;;;;;;;;;;4193939;34;20043;-81
2023/08/21 13:22:01;;;;;;;1.80;1.70;;;;;;;;;;4194602;34;20673;-84
2023/08/21 13:24:28;;;;;;;1.87;1.60;;;;;;;;;;4194900;34;20261;-83
2023/08/21 13:26:54;;;;;;;4.80;1.45;;;;;;;;;;4189515;34;20048;-83
2023/08/21 13:29:20;;;;;;;3.22;2.03;;;;;;;;;;4202620;34;20039;-83
2023/08/21 13:31:47;;;;;;;2.53;1.55;;;;;;;;;;4194143;34;20069;-86
2023/08/21 13:34:13;;;;;;;6.68;1.65;;;;;;;;;;4197544;34;20107;-83
2023/08/21 13:36:40;;;;;;;1.98;1.87;;;;;;;;;;4173445;34;20035;-81
2023/08/21 13:39:06;;;;;;;2.62;1.48;;;;;;;;;;4181655;34;20497;-84
2023/08/21 13:41:32;;;;;;;1.75;1.70;;;;;;;;;;4187945;34;20455;-82
2023/08/21 13:43:59;;;;;;;4.43;1.65;;;;;;;;;;4196943;34;20442;-85
2023/08/21 13:46:25;;;;;;;3.08;1.83;;;;;;;;;;4200272;34;20090;-81
2023/08/21 13:48:51;;;;;;;2.97;2.35;;;;;;;;;;4195073;34;20497;-83
2023/08/21 13:51:17;;;;;;;1.90;1.58;;;;;;;;;;4200105;34;20108;-85
2023/08/21 13:53:43;;;;;;;3.15;2.00;;;;;;;;;;4193029;34;20043;-87
2023/08/21 13:56:10;;;;;;;2.70;1.40;;;;;;;;;;4194458;34;20054;-84
2023/08/21 13:58:36;;;;;;;1.80;1.70;;;;;;;;;;4196434;34;20489;-86
2023/08/21 14:01:03;;;;;;;2.30;1.62;;;;;;;;;;4200783;34;20087;-82
2023/08/21 14:03:29;;;;;;;5.82;2.05;;;;;;;;;;4200438;34;20192;-83
2023/08/21 14:05:55;;;;;;;2.92;1.60;;;;;;;;;;4185978;34;20073;-85
2023/08/21 14:08:21;;;;;;;6.50;1.80;;;;;;;;;;4200766;34;20524;-84
2023/08/21 14:10:48;;;;;;;5.87;1.85;;;;;;;;;;4196903;34;20039;-84
2023/08/21 14:13:14;;;;;;;2.35;1.58;;;;;;;;;;4195085;34;20529;-84
2023/08/21 14:15:40;;;;;;;5.22;2.97;;;;;;;;;;4194823;34;20058;-86
2023/08/21 14:18:07;;;;;;;4.07;1.92;;;;;;;;;;4194777;34;20043;-86
2023/08/21 14:20:33;;;;;;;1.92;1.80;;;;;;;;;;4196589;34;20081;-85
2023/08/21 14:23:00;;;;;;;4.65;2.87;;;;;;;;;;4197287;34;20067;-85
2023/08/21 14:25:29;;;;;;;2.47;1.50;;;;;;;;;;4195540;34;20039;-85
2023/08/21 14:27:55;;;;;;;2.00;1.80;;;;;;;;;;4181268;34;20040;-83
2023/08/21 14:30:21;;;;;;;7.43;1.80;;;;;;;;;;4183796;34;20059;-84
2023/08/21 14:32:47;;;;;;;2.67;1.70;;;;;;;;;;4172337;34;20197;-84
2023/08/21 14:35:14;;;;;;;1.52;1.45;;;;;;;;;;4184009;34;20059;-83
2023/08/21 14:37:40;;;;;;;3.83;1.95;;;;;;;;;;4183311;34;20094;-85
2023/08/21 14:40:09;;;;;;;11.15;1.92;;;;;;;;;;4184348;34;20455;-85
2023/08/21 14:42:35;;;;;;;4.57;2.00;;;;;;;;;;4159811;34;20360;-84
2023/08/21 14:45:03;;;;;;;1.90;1.80;;;;;;;;;;4175454;34;20055;-87
2023/08/21 14:47:29;;;;;;;3.87;1.52;;;;;;;;;;4173430;34;20470;-89
2023/08/21 14:49:55;;;;;;;6.43;2.03;;;;;;;;;;4173547;34;20083;-84
2023/08/21 14:52:21;;;;;;;6.30;1.60;;;;;;;;;;4167117;34;20076;-85
2023/08/21 14:54:49;;;;;;;13.45;1.92;;;;;;;;;;4146818;34;20088;-84
2023/08/21 14:57:15;;;;;;;2.08;1.67;;;;;;;;;;4141909;34;20416;-84
2023/08/21 14:59:41;;;;;;;4.12;1.83;;;;;;;;;;4130957;34;20068;-88
2023/08/21 15:02:07;;;;;;;2.58;1.80;;;;;;;;;;4129699;34;20486;-85
2023/08/21 15:04:33;;;;;;;1.75;1.65;;;;;;;;;;4130316;34;20044;-86
2023/08/21 15:06:59;;;;;;;1.52;1.52;;;;;;;;;;4128804;34;20095;-86
2023/08/21 15:09:26;;;;;;;7.50;2.15;;;;;;;;;;4149069;34;20045;-85
2023/08/21 15:11:52;;;;;;;1.80;1.70;;;;;;;;;;4146170;34;20447;-85
2023/08/21 15:14:18;;;;;;;2.55;2.35;;;;;;;;;;4144670;34;20056;-84
2023/08/21 15:16:44;;;;;;;9.65;2.00;;;;;;;;;;4155351;34;20048;-84
2023/08/21 15:19:11;;;;;;;5.00;1.98;;;;;;;;;;4154019;34;20506;-86
2023/08/21 15:21:36;;;;;;;3.75;2.30;;;;;;;;;;4126864;34;20457;-83
2023/08/21 15:24:03;;;;;;;4.82;1.90;;;;;;;;;;4159387;34;20601;-82
2023/08/21 15:26:29;;;;;;;4.18;2.00;;;;;;;;;;4171076;34;20069;-84
2023/08/21 15:28:56;;;;;;;6.55;1.83;;;;;;;;;;4172777;34;20074;-84
2023/08/21 15:31:22;;;;;;;3.42;1.75;;;;;;;;;;4166922;34;20036;-82
2023/08/21 15:33:48;;;;;;;2.00;1.77;;;;;;;;;;4166756;34;20052;-84
2023/08/21 15:36:14;;;;;;;3.35;1.98;;;;;;;;;;4170097;34;20117;-82
2023/08/21 15:38:41;;;;;;;1.70;1.60;;;;;;;;;;4169321;34;20052;-81
2023/08/21 15:41:08;;;;;;;5.45;1.90;;;;;;;;;;4127332;34;20119;-82
2023/08/21 15:43:34;;;;;;;1.87;1.77;;;;;;;;;;4122672;34;20049;-82
2023/08/21 15:46:06;;;;;;;1.80;1.50;;;;;;;;;;4138066;34;20033;-83
2023/08/21 15:48:34;;;;;;;4.45;2.17;;;;;;;;;;4144098;34;20072;-84
2023/08/21 15:51:00;;;;;;;2.35;1.87;;;;;;;;;;4130284;34;20444;-83
2023/08/21 15:53:26;;;;;;;2.00;1.85;;;;;;;;;;4140154;34;20473;-84
2023/08/21 15:55:52;;;;;;;2.05;1.80;;;;;;;;;;4142593;34;20045;-81
2023/08/21 15:58:18;;;;;;;2.70;1.73;;;;;;;;;;4154034;34;20107;-84
2023/08/21 16:00:45;;;;;;;6.07;2.08;;;;;;;;;;4157496;34;20036;-89
2023/08/21 16:03:11;;;;;;;5.68;2.05;;;;;;;;;;4156176;34;20456;-87
2023/08/21 16:05:37;;;;;;;2.85;2.60;;;;;;;;;;4162310;34;20083;-84
2023/08/21 16:08:03;;;;;;;4.03;2.47;;;;;;;;;;4156709;34;20383;-81
2023/08/21 16:10:30;;;;;;;12.10;2.22;;;;;;;;;;4144252;34;20090;-86
2023/08/21 16:12:56;;;;;;;6.07;2.33;;;;;;;;;;4176204;34;20201;-87
2023/08/21 16:15:22;;;;;;;3.45;2.08;;;;;;;;;;4183878;34;20114;-88
2023/08/21 16:17:48;;;;;;;6.28;2.00;;;;;;;;;;4183733;34;20067;-86
2023/08/21 16:20:15;;;;;;;4.70;1.87;;;;;;;;;;4180216;34;20043;-86
2023/08/21 16:22:42;;;;;;;3.15;2.78;;;;;;;;;;4165338;34;20081;-88
2023/08/21 16:25:08;;;;;;;3.12;2.17;;;;;;;;;;4167224;34;20078;-86
2023/08/21 16:27:35;;;;;;;2.87;2.15;;;;;;;;;;4154139;34;20040;-90
2023/08/21 16:30:01;;;;;;;2.22;1.95;;;;;;;;;;4154697;34;20062;-90
2023/08/21 16:32:27;;;;;;;3.50;1.85;;;;;;;;;;4157337;34;20098;-82
2023/08/21 16:34:53;;;;;;;3.97;2.10;;;;;;;;;;4158073;34;20970;-88